createdAt,value
2023-04-22T00:02:24.445Z,2.83
2023-04-22T00:04:52.307Z,2.78
2023-04-22T00:07:20.074Z,3.25
2023-04-22T00:09:47.735Z,2.33
2023-04-22T00:12:15.533Z,2.03
2023-04-22T00:14:44.544Z,1.92
2023-04-22T00:17:12.273Z,2.03
2023-04-22T00:19:41.082Z,1.92
2023-04-22T00:22:08.855Z,2.47
2023-04-22T00:24:36.504Z,2.33
2023-04-22T00:27:04.362Z,1.88
2023-04-22T00:29:32.037Z,2.95
2023-04-22T00:32:01.113Z,2.22
2023-04-22T00:34:28.830Z,1.70
2023-04-22T00:36:57.057Z,1.95
2023-04-22T00:39:24.982Z,2.97
2023-04-22T00:41:53.160Z,2.72
2023-04-22T00:44:21.282Z,4.57
2023-04-22T00:46:49.681Z,2.70
2023-04-22T00:49:19.595Z,3.22
2023-04-22T00:51:47.312Z,2.03
2023-04-22T00:54:15.044Z,2.08
2023-04-22T00:56:42.903Z,1.92
2023-04-22T00:59:10.918Z,2.22
2023-04-22T01:01:38.763Z,2.88
2023-04-22T01:04:06.663Z,1.58
2023-04-22T01:06:36.358Z,3.85
2023-04-22T01:09:04.074Z,2.78
2023-04-22T01:11:31.762Z,2.60
2023-04-22T01:13:59.566Z,3.15
2023-04-22T01:16:29.426Z,2.38
2023-04-22T01:18:57.186Z,3.28
2023-04-22T01:21:25.446Z,5.03
2023-04-22T01:23:54.493Z,2.55
2023-04-22T01:26:22.312Z,2.30
2023-04-22T01:28:50.056Z,1.90
2023-04-22T01:31:17.735Z,2.10
2023-04-22T01:33:45.682Z,2.53
2023-04-22T01:36:13.487Z,4.22
2023-04-22T01:38:41.180Z,1.70
2023-04-22T01:41:10.292Z,3.03
2023-04-22T01:43:38.954Z,1.77
2023-04-22T01:46:07.452Z,3.63
2023-04-22T01:48:35.634Z,2.35
2023-04-22T01:51:03.541Z,2.22
2023-04-22T01:53:31.315Z,4.00
2023-04-22T01:55:58.959Z,3.15
2023-04-22T01:58:30.875Z,2.83
2023-04-22T02:00:58.797Z,2.22
2023-04-22T02:03:26.716Z,3.92
2023-04-22T02:05:56.632Z,4.63
2023-04-22T02:08:24.306Z,6.45
2023-04-22T02:10:52.037Z,3.97
2023-04-22T02:13:19.740Z,4.50
2023-04-22T02:15:50.387Z,5.22
2023-04-22T02:18:19.489Z,3.78
2023-04-22T02:20:47.146Z,3.53
2023-04-22T02:23:14.847Z,3.47
2023-04-22T02:25:49.138Z,4.10
2023-04-22T02:28:17.369Z,4.10
2023-04-22T02:30:45.798Z,3.25
2023-04-22T02:33:14.843Z,2.85
2023-04-22T02:35:42.507Z,3.58
2023-04-22T02:38:11.386Z,3.25
2023-04-22T02:40:39.096Z,2.53
2023-04-22T02:43:08.047Z,4.22
2023-04-22T02:45:35.944Z,3.75
2023-04-22T02:48:03.665Z,5.35
2023-04-22T02:50:32.728Z,5.53
2023-04-22T02:53:01.650Z,5.43
2023-04-22T02:55:29.369Z,5.03
2023-04-22T02:57:57.127Z,5.35
2023-04-22T03:00:24.837Z,8.07
2023-04-22T03:02:52.814Z,5.53
2023-04-22T03:05:25.050Z,5.07
2023-04-22T03:07:54.057Z,6.10
2023-04-22T03:10:22.238Z,4.93
2023-04-22T03:12:51.319Z,4.75
2023-04-22T03:15:21.428Z,5.20
2023-04-22T03:17:49.836Z,4.63
2023-04-22T03:20:19.154Z,6.22
2023-04-22T03:22:46.889Z,7.90
2023-04-22T03:25:17.748Z,6.63
2023-04-22T03:27:53.359Z,6.68
2023-04-22T03:30:21.198Z,5.07
2023-04-22T03:32:49.012Z,7.22
2023-04-22T03:35:23.186Z,5.10
2023-04-22T03:37:52.138Z,5.30
2023-04-22T03:40:26.789Z,4.70
2023-04-22T03:42:55.154Z,5.30
2023-04-22T03:45:23.272Z,5.55
2023-04-22T03:48:26.895Z,3.95
2023-04-22T03:50:55.212Z,4.32
2023-04-22T03:53:24.082Z,3.85
2023-04-22T03:55:53.947Z,3.83
2023-04-22T03:58:21.658Z,2.65
2023-04-22T04:00:51.013Z,3.58
2023-04-22T04:03:20.298Z,3.05
2023-04-22T04:05:51.617Z,4.45
2023-04-22T04:08:19.481Z,3.40
2023-04-22T04:10:47.241Z,6.53
2023-04-22T04:13:17.681Z,3.58
2023-04-22T04:16:00.138Z,7.20
2023-04-22T04:18:30.619Z,4.82
2023-04-22T04:20:59.001Z,3.15
2023-04-22T04:23:28.981Z,4.22
2023-04-22T04:25:56.688Z,3.47
2023-04-22T04:28:27.084Z,4.00
2023-04-22T04:30:54.831Z,4.00
2023-04-22T04:33:23.451Z,4.07
2023-04-22T04:35:51.262Z,4.78
2023-04-22T04:38:22.892Z,3.97
2023-04-22T04:40:51.646Z,4.95
2023-04-22T04:43:26.980Z,2.90
2023-04-22T04:46:03.249Z,3.90
2023-04-22T04:48:36.122Z,3.40
2023-04-22T04:51:08.085Z,2.90
2023-04-22T04:53:41.135Z,4.03
2023-04-22T04:56:08.940Z,3.60
2023-04-22T04:58:37.011Z,4.55
2023-04-22T05:01:20.381Z,6.75
2023-04-22T05:03:49.153Z,4.05
2023-04-22T05:06:19.002Z,4.15
2023-04-22T05:08:54.778Z,5.15
2023-04-22T05:11:22.570Z,3.70
2023-04-22T05:13:52.194Z,2.92
2023-04-22T05:16:28.162Z,3.92
2023-04-22T05:18:56.495Z,4.38
2023-04-22T05:21:24.710Z,3.90
2023-04-22T05:23:52.348Z,5.15
2023-04-22T05:26:21.212Z,3.00
2023-04-22T05:28:51.304Z,5.88
2023-04-22T05:31:20.071Z,3.42
2023-04-22T05:33:50.397Z,3.47
2023-04-22T05:36:18.245Z,4.93
2023-04-22T05:38:48.086Z,5.47
2023-04-22T05:41:16.703Z,8.43
2023-04-22T05:43:45.302Z,4.60
2023-04-22T05:46:17.322Z,5.93
2023-04-22T05:48:46.680Z,6.82
2023-04-22T05:51:34.322Z,5.65
2023-04-22T05:54:02.293Z,6.63
2023-04-22T05:56:30.824Z,4.07
2023-04-22T05:58:58.542Z,6.55
2023-04-22T06:01:27.130Z,6.25
2023-04-22T06:04:02.041Z,3.92
2023-04-22T06:06:31.562Z,4.55
2023-04-22T06:09:00.603Z,4.30
2023-04-22T06:11:28.819Z,4.68
2023-04-22T06:13:56.786Z,4.25
2023-04-22T06:16:24.550Z,4.53
2023-04-22T06:18:52.338Z,4.00
2023-04-22T06:21:22.106Z,5.43
2023-04-22T06:23:50.153Z,4.18
2023-04-22T06:26:19.653Z,4.50
2023-04-22T06:28:47.357Z,3.55
2023-04-22T06:31:21.058Z,3.53
2023-04-22T06:33:49.057Z,3.65
2023-04-22T06:36:17.009Z,4.65
2023-04-22T06:38:48.064Z,5.43
2023-04-22T06:41:30.520Z,4.75
2023-04-22T06:44:02.924Z,6.22
2023-04-22T06:46:49.317Z,5.30
2023-04-22T06:49:43.720Z,6.60
2023-04-22T06:52:30.748Z,8.80
2023-04-22T06:55:00.243Z,7.03
2023-04-22T06:57:29.410Z,7.97
2023-04-22T06:59:57.286Z,9.43
2023-04-22T07:02:27.817Z,9.43
2023-04-22T07:04:55.702Z,9.13
2023-04-22T07:07:24.845Z,9.63
2023-04-22T07:09:52.703Z,8.95
2023-04-22T07:12:20.440Z,11.60
2023-04-22T07:14:50.282Z,12.93
2023-04-22T07:17:19.469Z,12.82
2023-04-22T07:19:47.312Z,12.27
2023-04-22T07:22:14.964Z,12.30
2023-04-22T07:24:42.649Z,10.75
2023-04-22T07:27:10.395Z,10.48
2023-04-22T07:29:38.361Z,10.57
2023-04-22T07:32:07.817Z,11.90
2023-04-22T07:34:35.629Z,10.95
2023-04-22T07:37:03.337Z,11.43
2023-04-22T07:39:31.214Z,11.38
2023-04-22T07:41:59.145Z,13.40
2023-04-22T07:44:26.847Z,13.32
2023-04-22T07:46:55.482Z,10.70
2023-04-22T07:49:24.552Z,10.75
2023-04-22T07:51:52.328Z,11.77
2023-04-22T07:54:20.144Z,10.73
2023-04-22T07:56:47.878Z,9.82
2023-04-22T07:59:15.690Z,8.82
2023-04-22T08:01:43.417Z,8.02
2023-04-22T08:04:11.296Z,9.35
2023-04-22T08:06:40.742Z,7.35
2023-04-22T08:09:10.227Z,7.32
2023-04-22T08:11:37.997Z,11.30
2023-04-22T08:14:05.897Z,7.53
2023-04-22T08:16:34.371Z,6.28
2023-04-22T08:19:03.365Z,7.45
2023-04-22T08:21:32.208Z,5.70
2023-04-22T08:24:02.128Z,6.18
2023-04-22T08:26:30.220Z,6.50
2023-04-22T08:28:59.067Z,7.53
2023-04-22T08:31:27.600Z,6.15
2023-04-22T08:33:57.100Z,8.27
2023-04-22T08:36:26.728Z,7.70
2023-04-22T08:38:55.599Z,5.10
2023-04-22T08:41:25.096Z,9.68
2023-04-22T08:43:53.442Z,8.40
2023-04-22T08:46:21.761Z,7.18
2023-04-22T08:48:49.868Z,6.57
2023-04-22T08:51:18.106Z,6.05
2023-04-22T08:53:46.064Z,6.70
2023-04-22T08:56:14.120Z,4.72
2023-04-22T08:58:43.523Z,7.85
2023-04-22T09:01:11.588Z,9.60
2023-04-22T09:03:40.831Z,6.10
2023-04-22T09:06:09.331Z,5.03
2023-04-22T09:08:37.575Z,6.30
2023-04-22T09:11:05.677Z,7.15
2023-04-22T09:13:34.565Z,5.72
2023-04-22T09:16:03.657Z,6.15
2023-04-22T09:18:32.053Z,5.53
2023-04-22T09:21:00.001Z,6.28
2023-04-22T09:23:27.734Z,5.82
2023-04-22T09:25:57.856Z,7.90
2023-04-22T09:28:25.920Z,7.40
2023-04-22T09:30:53.727Z,5.97
2023-04-22T09:33:26.379Z,9.75
2023-04-22T09:35:54.135Z,7.55
2023-04-22T09:38:21.998Z,8.32
2023-04-22T09:40:49.656Z,5.45
2023-04-22T09:43:19.296Z,5.38
2023-04-22T09:45:47.084Z,4.65
2023-04-22T09:48:18.435Z,7.00
2023-04-22T09:50:48.506Z,4.85
2023-04-22T09:53:17.408Z,9.18
2023-04-22T09:55:47.431Z,6.93
2023-04-22T09:58:15.945Z,6.38
2023-04-22T10:00:44.820Z,5.07
2023-04-22T10:03:12.811Z,4.50
2023-04-22T10:05:41.351Z,5.65
2023-04-22T10:08:11.331Z,7.05
2023-04-22T10:10:39.585Z,4.15
2023-04-22T10:13:07.568Z,3.70
2023-04-22T10:15:36.530Z,2.65
2023-04-22T10:18:06.609Z,3.28
2023-04-22T10:20:36.521Z,2.78
2023-04-22T10:23:05.081Z,2.65
2023-04-22T10:25:34.198Z,3.97
2023-04-22T10:28:03.313Z,2.58
2023-04-22T10:30:31.759Z,3.97
2023-04-22T10:33:14.261Z,2.90
2023-04-22T10:35:41.968Z,2.80
2023-04-22T10:38:10.929Z,2.22
2023-04-22T10:40:59.345Z,2.15
2023-04-22T10:43:41.376Z,3.35
2023-04-22T10:46:09.149Z,2.90
2023-04-22T10:48:49.173Z,2.90
2023-04-22T10:51:32.228Z,2.30
2023-04-22T10:54:01.960Z,1.90
2023-04-22T10:56:30.988Z,3.35
2023-04-22T10:58:58.681Z,3.10
2023-04-22T11:01:28.817Z,2.33
2023-04-22T11:04:16.630Z,3.47
2023-04-22T11:06:44.366Z,3.90
2023-04-22T11:09:12.894Z,2.55
2023-04-22T11:11:42.017Z,3.35
2023-04-22T11:14:10.059Z,2.00
2023-04-22T11:16:38.198Z,4.43
2023-04-22T11:19:05.914Z,2.58
2023-04-22T11:21:33.759Z,5.43
2023-04-22T11:24:06.150Z,5.13
2023-04-22T11:26:34.915Z,3.35
2023-04-22T11:29:04.092Z,3.10
2023-04-22T11:31:31.853Z,2.10
2023-04-22T11:33:59.910Z,2.20
2023-04-22T11:36:27.697Z,3.67
2023-04-22T11:38:55.560Z,3.47
2023-04-22T11:41:23.631Z,3.65
2023-04-22T11:43:51.394Z,4.13
2023-04-22T11:46:30.662Z,4.38
2023-04-22T11:49:12.016Z,3.75
2023-04-22T11:51:52.158Z,3.33
2023-04-22T11:54:29.839Z,2.80
2023-04-22T11:56:57.475Z,6.30
2023-04-22T11:59:25.564Z,2.95
2023-04-22T12:01:54.749Z,2.45
2023-04-22T12:04:22.491Z,3.88
2023-04-22T12:06:50.186Z,5.20
2023-04-22T12:09:17.931Z,5.70
2023-04-22T12:11:46.070Z,3.92
2023-04-22T12:14:13.775Z,4.93
2023-04-22T12:16:42.157Z,4.70
2023-04-22T12:19:11.281Z,4.53
2023-04-22T12:21:38.946Z,2.58
2023-04-22T12:24:10.400Z,5.97
2023-04-22T12:26:38.714Z,3.10
2023-04-22T12:29:06.392Z,2.95
2023-04-22T12:31:34.268Z,3.20
2023-04-22T12:34:02.448Z,2.50
2023-04-22T12:36:32.432Z,3.97
2023-04-22T12:39:00.705Z,2.97
2023-04-22T12:41:28.874Z,5.40
2023-04-22T12:43:56.671Z,3.50
2023-04-22T12:46:24.566Z,4.00
2023-04-22T12:48:52.534Z,2.55
2023-04-22T12:51:20.318Z,6.53
2023-04-22T12:53:49.476Z,3.20
2023-04-22T12:56:17.198Z,3.13
2023-04-22T12:58:44.922Z,3.63
2023-04-22T13:01:12.632Z,2.60
2023-04-22T13:03:40.644Z,3.83
2023-04-22T13:06:08.571Z,5.55
2023-04-22T13:08:36.269Z,5.05
2023-04-22T13:11:05.314Z,3.97
2023-04-22T13:13:32.949Z,7.97
2023-04-22T13:16:00.789Z,3.60
2023-04-22T13:18:28.571Z,3.53
2023-04-22T13:20:57.181Z,3.35
2023-04-22T13:23:25.761Z,3.42
2023-04-22T13:25:53.531Z,2.28
2023-04-22T13:28:23.080Z,4.38
2023-04-22T13:30:50.987Z,5.25
2023-04-22T13:33:18.732Z,2.95
2023-04-22T13:35:46.530Z,4.35
2023-04-22T13:38:14.201Z,2.80
2023-04-22T13:40:41.939Z,5.80
2023-04-22T13:43:10.085Z,6.10
2023-04-22T13:45:40.196Z,3.35
2023-04-22T13:48:07.898Z,4.82
2023-04-22T13:50:35.695Z,5.20
2023-04-22T13:53:04.687Z,2.58
2023-04-22T13:55:32.385Z,3.90
2023-04-22T13:58:01.149Z,3.47
2023-04-22T14:00:29.009Z,3.92
2023-04-22T14:02:58.240Z,5.00
2023-04-22T14:05:26.153Z,2.67
2023-04-22T14:07:53.912Z,9.95
2023-04-22T14:10:22.164Z,6.15
2023-04-22T14:12:50.105Z,3.17
2023-04-22T14:15:17.871Z,4.93
2023-04-22T14:17:49.158Z,6.72
2023-04-22T14:20:18.550Z,4.90
2023-04-22T14:22:46.471Z,3.50
2023-04-22T14:25:14.384Z,4.38
2023-04-22T14:27:42.105Z,3.67
2023-04-22T14:30:10.242Z,7.72
2023-04-22T14:32:38.675Z,2.90
2023-04-22T14:35:06.852Z,5.00
2023-04-22T14:37:35.972Z,4.63
2023-04-22T14:40:03.866Z,3.67
2023-04-22T14:42:31.755Z,3.30
2023-04-22T14:44:59.506Z,3.30
2023-04-22T14:47:27.295Z,2.38
2023-04-22T14:49:55.276Z,3.63
2023-04-22T14:52:23.066Z,3.45
2023-04-22T14:54:52.298Z,4.47
2023-04-22T14:57:20.141Z,1.58
2023-04-22T14:59:48.199Z,4.20
2023-04-22T15:02:16.721Z,3.95
2023-04-22T15:04:44.926Z,4.13
2023-04-22T15:07:12.746Z,5.32
2023-04-22T15:09:40.729Z,5.72
2023-04-22T15:12:09.874Z,5.57
2023-04-22T15:14:37.728Z,3.53
2023-04-22T15:17:06.264Z,4.15
2023-04-22T15:19:34.076Z,2.05
2023-04-22T15:22:02.061Z,4.35
2023-04-22T15:24:30.173Z,2.13
2023-04-22T15:26:57.974Z,3.45
2023-04-22T15:29:28.376Z,4.63
2023-04-22T15:31:56.461Z,5.18
2023-04-22T15:34:24.580Z,3.40
2023-04-22T15:36:52.254Z,5.70
2023-04-22T15:39:19.858Z,3.38
2023-04-22T15:41:47.547Z,3.92
2023-04-22T15:44:16.137Z,3.35
2023-04-22T15:46:46.390Z,3.00
2023-04-22T15:49:14.527Z,2.60
2023-04-22T15:51:42.317Z,3.70
2023-04-22T15:54:10.088Z,4.60
2023-04-22T15:56:37.791Z,3.47
2023-04-22T15:59:05.446Z,5.35
2023-04-22T16:01:33.192Z,3.17
2023-04-22T16:04:02.390Z,4.25
2023-04-22T16:06:30.827Z,3.88
2023-04-22T16:08:58.583Z,2.47
2023-04-22T16:11:26.633Z,3.85
2023-04-22T16:13:54.495Z,3.90
2023-04-22T16:16:23.087Z,5.85
2023-04-22T16:18:50.995Z,3.88
2023-04-22T16:21:20.141Z,4.03
2023-04-22T16:23:48.613Z,3.22
2023-04-22T16:26:16.377Z,3.22
2023-04-22T16:28:44.260Z,2.95
2023-04-22T16:31:12.196Z,4.25
2023-04-22T16:33:39.952Z,5.40
2023-04-22T16:36:08.887Z,3.45
2023-04-22T16:38:37.881Z,3.15
2023-04-22T16:41:05.761Z,3.47
2023-04-22T16:43:33.708Z,2.10
2023-04-22T16:46:01.889Z,4.20
2023-04-22T16:48:29.889Z,4.05
2023-04-22T16:50:57.702Z,2.00
2023-04-22T16:53:25.711Z,3.28
2023-04-22T16:55:55.842Z,3.35
2023-04-22T16:58:23.750Z,2.88
2023-04-22T17:00:52.198Z,5.15
2023-04-22T17:03:21.285Z,7.00
2023-04-22T17:05:49.426Z,2.13
2023-04-22T17:08:17.883Z,3.58
2023-04-22T17:10:46.112Z,2.50
2023-04-22T17:13:15.777Z,2.55
2023-04-22T17:15:43.660Z,2.58
2023-04-22T17:18:11.674Z,3.80
2023-04-22T17:20:39.420Z,2.50
2023-04-22T17:23:07.729Z,3.10
2023-04-22T17:25:35.617Z,4.72
2023-04-22T17:28:03.434Z,17.35
2023-04-22T17:30:32.539Z,8.63
2023-04-22T17:33:00.321Z,5.47
2023-04-22T17:35:28.078Z,2.38
2023-04-22T17:37:57.741Z,2.88
2023-04-22T17:40:25.467Z,2.33
2023-04-22T17:42:53.120Z,3.50
2023-04-22T17:45:20.913Z,2.38
2023-04-22T17:47:49.935Z,3.20
2023-04-22T17:50:17.783Z,2.97
2023-04-22T17:52:45.817Z,2.72
2023-04-22T17:55:13.485Z,2.60
2023-04-22T17:57:42.212Z,4.57
2023-04-22T18:00:10.980Z,7.38
2023-04-22T18:02:40.461Z,3.90
2023-04-22T18:05:10.233Z,2.40
2023-04-22T18:07:37.923Z,2.95
2023-04-22T18:10:05.950Z,2.83
2023-04-22T18:12:33.673Z,3.58
2023-04-22T18:15:01.304Z,4.18
2023-04-22T18:17:28.939Z,2.88
2023-04-22T18:20:09.682Z,3.13
2023-04-22T18:22:45.972Z,3.70
2023-04-22T18:25:13.737Z,3.30
2023-04-22T18:27:41.505Z,3.45
2023-04-22T18:30:09.543Z,3.85
2023-04-22T18:32:37.760Z,7.43
2023-04-22T18:35:06.096Z,2.97
2023-04-22T18:37:34.691Z,4.13
2023-04-22T18:40:05.768Z,5.28
2023-04-22T18:42:33.500Z,5.47
2023-04-22T18:45:03.081Z,3.25
2023-04-22T18:47:32.519Z,3.85
2023-04-22T18:50:00.305Z,3.78
2023-04-22T18:52:27.956Z,3.47
2023-04-22T18:54:55.620Z,2.70
2023-04-22T18:57:24.644Z,2.10
2023-04-22T18:59:52.279Z,5.28
2023-04-22T19:02:20.039Z,2.42
2023-04-22T19:04:47.813Z,2.20
2023-04-22T19:07:15.466Z,5.47
2023-04-22T19:09:43.153Z,5.43
2023-04-22T19:12:14.650Z,3.97
2023-04-22T19:14:43.867Z,3.25
2023-04-22T19:17:11.972Z,2.47
2023-04-22T19:19:39.871Z,2.63
2023-04-22T19:22:08.092Z,5.97
2023-04-22T19:24:36.529Z,6.93
2023-04-22T19:27:07.004Z,3.92
2023-04-22T19:29:34.766Z,3.53
2023-04-22T19:32:03.839Z,2.60
2023-04-22T19:34:32.389Z,4.13
2023-04-22T19:37:02.852Z,3.25
2023-04-22T19:39:30.845Z,3.22
2023-04-22T19:41:59.540Z,3.75
2023-04-22T19:44:27.432Z,3.30
2023-04-22T19:46:55.247Z,3.33
2023-04-22T19:49:24.653Z,3.53
2023-04-22T19:51:53.271Z,3.80
2023-04-22T19:54:21.819Z,3.28
2023-04-22T19:56:49.668Z,4.97
2023-04-22T19:59:17.358Z,3.83
2023-04-22T20:01:45.262Z,3.22
2023-04-22T20:04:13.249Z,4.10
2023-04-22T20:06:44.707Z,4.07
2023-04-22T20:09:13.341Z,4.38
2023-04-22T20:11:41.474Z,4.10
2023-04-22T20:14:10.150Z,4.05
2023-04-22T20:16:38.435Z,4.10
2023-04-22T20:19:06.222Z,2.97
2023-04-22T20:21:35.410Z,3.38
2023-04-22T20:24:05.058Z,4.40
2023-04-22T20:26:32.947Z,4.68
2023-04-22T20:29:01.292Z,3.72
2023-04-22T20:31:29.163Z,4.15
2023-04-22T20:33:57.171Z,4.70
2023-04-22T20:36:26.379Z,4.22
2023-04-22T20:38:55.727Z,3.47
2023-04-22T20:41:25.452Z,4.97
2023-04-22T20:43:53.074Z,3.72
2023-04-22T20:46:23.077Z,4.53
2023-04-22T20:48:51.582Z,4.85
2023-04-22T20:51:19.503Z,4.20
2023-04-22T20:53:47.171Z,5.30
2023-04-22T20:56:15.483Z,7.57
2023-04-22T20:58:44.566Z,5.15
2023-04-22T21:01:16.127Z,7.85
2023-04-22T21:03:47.695Z,4.60
2023-04-22T21:06:15.620Z,4.03
2023-04-22T21:08:43.777Z,4.47
2023-04-22T21:11:11.869Z,5.50
2023-04-22T21:13:39.934Z,6.22
2023-04-22T21:16:09.944Z,4.72
2023-04-22T21:18:39.690Z,6.93
2023-04-22T21:21:08.120Z,5.03
2023-04-22T21:23:35.934Z,6.85
2023-04-22T21:26:04.124Z,9.50
2023-04-22T21:28:32.007Z,5.72
2023-04-22T21:31:00.406Z,5.90
2023-04-22T21:33:29.477Z,3.67
2023-04-22T21:35:57.278Z,6.22
2023-04-22T21:38:25.001Z,4.43
2023-04-22T21:40:52.710Z,5.25
2023-04-22T21:43:20.423Z,6.22
2023-04-22T21:45:48.068Z,5.97
2023-04-22T21:48:15.714Z,4.90
2023-04-22T21:50:44.786Z,4.55
2023-04-22T21:53:12.935Z,5.13
2023-04-22T21:55:40.874Z,5.78
2023-04-22T21:58:08.593Z,4.65
2023-04-22T22:00:37.797Z,7.72
2023-04-22T22:03:06.148Z,5.13
2023-04-22T22:05:34.091Z,4.35
2023-04-22T22:08:03.116Z,6.18
2023-04-22T22:10:30.802Z,4.68
2023-04-22T22:12:58.449Z,8.27
2023-04-22T22:15:26.114Z,5.45
2023-04-22T22:17:53.861Z,7.22
2023-04-22T22:20:21.628Z,4.88
2023-04-22T22:22:49.285Z,5.38
2023-04-22T22:25:18.419Z,4.40
2023-04-22T22:27:47.210Z,4.43
2023-04-22T22:30:15.153Z,4.97
2023-04-22T22:32:43.001Z,5.25
2023-04-22T22:35:11.162Z,5.70
2023-04-22T22:37:39.068Z,4.00
2023-04-22T22:40:08.629Z,3.83
2023-04-22T22:42:37.712Z,16.83
2023-04-22T22:45:05.739Z,6.38
2023-04-22T22:47:33.571Z,4.95
2023-04-22T22:50:01.358Z,8.00
2023-04-22T22:52:29.106Z,6.97
2023-04-22T22:54:56.927Z,5.88
2023-04-22T22:57:24.765Z,5.78
2023-04-22T22:59:53.900Z,4.57
2023-04-22T23:02:22.054Z,7.93
2023-04-22T23:04:49.878Z,6.93
2023-04-22T23:07:17.738Z,5.15
2023-04-22T23:09:45.523Z,4.93
2023-04-22T23:12:13.232Z,9.80
2023-04-22T23:14:41.340Z,5.75
2023-04-22T23:17:10.752Z,4.85
2023-04-22T23:19:38.721Z,6.80
2023-04-22T23:22:06.858Z,5.22
2023-04-22T23:24:34.795Z,6.38
2023-04-22T23:27:02.976Z,7.28
2023-04-22T23:29:31.050Z,5.68
2023-04-22T23:32:01.296Z,4.82
2023-04-22T23:34:32.514Z,8.45
2023-04-22T23:37:00.282Z,6.28
2023-04-22T23:39:27.922Z,5.85
2023-04-22T23:41:55.687Z,6.57
2023-04-22T23:44:23.414Z,5.88
2023-04-22T23:46:51.067Z,5.90
2023-04-22T23:49:18.738Z,5.30
2023-04-22T23:51:47.712Z,7.32
2023-04-22T23:54:15.908Z,6.22
2023-04-22T23:56:43.816Z,6.20
2023-04-22T23:59:11.708Z,7.47
